Terminal Aerodrome Forecast
Issued by NWS

Home | Current Version | Previous Version | Text Only | Print | Product List | Glossary On
Versions: 1 2 3 4 5 6 7 8 9 10 11 12 13 14 15 16 17 18 19 20 21 22 23 24 25
000
FTUS45 KFGZ 200715 AAA
TAFGCN
TAF AMD
KGCN 200715Z 2007/2106 24005KT P6SM VCSH SCT002 OVC004
      TEMPO 2007/2009 1/2SM FG BKN002
     FM200900 23005KT 3SM BR OVC003
      TEMPO 2009/2012 1SM BR BKN002
     FM201700 23007KT P6SM SCT004 BKN025 BKN250
     FM202330 23004KT P6SM SCT250=

USA.gov is the U.S. government's official web portal to all federal, state and local government web resources and services.